Time;durP1;ratioP1;P1;durP2;ratioP2;P2;SDS_P1;SDS_P2;PMS_P1;PMS_P2;Temp;Humidity;BMP_temperature;BMP_pressure;BME280_temperature;BME280_humidity;BME280_pressure;Samples;Min_cycle;Max_cycle;Signal;HPM_P1;HPM_P2
2021/01/16 00:00:56;;;;;;;16.83;10.48;;;;;;;;;;5019928;28;20175;-75
2021/01/16 00:03:23;;;;;;;17.35;10.95;;;;;;;;;;5019400;28;20186;-76
2021/01/16 00:05:49;;;;;;;16.20;10.38;;;;;;;;;;5019342;28;20242;-77
2021/01/16 00:08:16;;;;;;;17.67;10.80;;;;;;;;;;5018251;28;20180;-75
2021/01/16 00:10:46;;;;;;;15.45;10.50;;;;;;;;;;5019698;28;20259;-74
2021/01/16 00:13:20;;;;;;;17.05;10.70;;;;;;;;;;5019635;28;20174;-75
2021/01/16 00:15:46;;;;;;;15.90;11.05;;;;;;;;;;5019028;28;20213;-74
2021/01/16 00:18:13;;;;;;;16.83;11.18;;;;;;;;;;5019391;28;20178;-76
2021/01/16 00:20:40;;;;;;;16.50;10.57;;;;;;;;;;5019410;28;20176;-74
2021/01/16 00:23:07;;;;;;;18.35;10.55;;;;;;;;;;5019459;28;20217;-75
2021/01/16 00:25:33;;;;;;;16.08;10.05;;;;;;;;;;5018993;28;20208;-76
2021/01/16 00:28:00;;;;;;;17.35;12.05;;;;;;;;;;5019278;28;20174;-74
2021/01/16 00:30:27;;;;;;;17.60;11.35;;;;;;;;;;5019384;28;20574;-77
2021/01/16 00:32:53;;;;;;;16.10;10.30;;;;;;;;;;5019531;28;20602;-75
2021/01/16 00:35:19;;;;;;;25.45;11.82;;;;;;;;;;5019138;28;20537;-76
2021/01/16 00:37:46;;;;;;;19.23;11.48;;;;;;;;;;5019484;28;20184;-76
2021/01/16 00:40:14;;;;;;;15.38;10.73;;;;;;;;;;5019283;28;20185;-75
2021/01/16 00:42:41;;;;;;;13.75;9.80;;;;;;;;;;5014088;28;20190;-75
2021/01/16 00:45:07;;;;;;;18.73;11.40;;;;;;;;;;5015648;28;20218;-75
2021/01/16 00:47:34;;;;;;;18.90;10.57;;;;;;;;;;5016358;28;20180;-75
2021/01/16 00:50:00;;;;;;;16.27;10.32;;;;;;;;;;5016362;28;20178;-76
2021/01/16 00:52:26;;;;;;;20.42;12.27;;;;;;;;;;5016202;28;20198;-74
2021/01/16 00:54:52;;;;;;;18.75;11.38;;;;;;;;;;5015660;28;20246;-75
2021/01/16 00:57:18;;;;;;;18.33;11.43;;;;;;;;;;5016144;28;20182;-75
2021/01/16 00:59:44;;;;;;;18.87;11.00;;;;;;;;;;5016010;28;20210;-74
2021/01/16 01:02:10;;;;;;;18.80;10.27;;;;;;;;;;5015965;28;20413;-76
2021/01/16 01:04:36;;;;;;;21.85;12.55;;;;;;;;;;5015496;28;20277;-76
2021/01/16 01:07:04;;;;;;;18.93;10.80;;;;;;;;;;5015750;28;20207;-76
2021/01/16 01:09:30;;;;;;;18.23;11.27;;;;;;;;;;5015699;28;20462;-74
2021/01/16 01:11:56;;;;;;;21.58;12.80;;;;;;;;;;5015728;28;20254;-76
2021/01/16 01:14:22;;;;;;;19.40;12.23;;;;;;;;;;5015189;28;20620;-75
2021/01/16 01:16:48;;;;;;;19.60;11.43;;;;;;;;;;5015571;28;20203;-77
2021/01/16 01:19:14;;;;;;;28.00;12.37;;;;;;;;;;5015561;28;20409;-77
2021/01/16 01:21:39;;;;;;;24.13;12.85;;;;;;;;;;5015501;28;21000;-76
2021/01/16 01:24:06;;;;;;;19.77;12.10;;;;;;;;;;5015083;28;20184;-75
2021/01/16 01:26:32;;;;;;;20.77;12.48;;;;;;;;;;5015296;28;20463;-77
2021/01/16 01:28:58;;;;;;;20.30;12.45;;;;;;;;;;5015360;28;20176;-75
2021/01/16 01:31:24;;;;;;;21.48;14.52;;;;;;;;;;5015298;28;20175;-76
2021/01/16 01:33:50;;;;;;;23.63;13.50;;;;;;;;;;5015110;28;20214;-77
2021/01/16 01:36:15;;;;;;;25.73;14.53;;;;;;;;;;5015501;28;20195;-76
2021/01/16 01:38:41;;;;;;;21.30;13.27;;;;;;;;;;5015019;28;20422;-75
2021/01/16 01:41:07;;;;;;;23.73;13.80;;;;;;;;;;5015444;28;20509;-75
2021/01/16 01:43:33;;;;;;;23.17;13.95;;;;;;;;;;5014877;28;20186;-76
2021/01/16 01:45:59;;;;;;;20.30;13.90;;;;;;;;;;5013817;28;20233;-75
2021/01/16 01:48:26;;;;;;;23.67;13.88;;;;;;;;;;5015288;28;20434;-76
2021/01/16 01:50:52;;;;;;;20.25;13.35;;;;;;;;;;5015084;28;20229;-76
2021/01/16 01:53:19;;;;;;;23.55;13.57;;;;;;;;;;5014916;28;20175;-75
2021/01/16 01:55:45;;;;;;;22.30;14.75;;;;;;;;;;5014539;28;20191;-75
2021/01/16 01:58:15;;;;;;;24.60;14.98;;;;;;;;;;5015030;28;20175;-75
2021/01/16 02:00:42;;;;;;;22.23;15.15;;;;;;;;;;5014933;28;20183;-77
2021/01/16 02:03:11;;;;;;;22.83;14.48;;;;;;;;;;5013522;28;20286;-77
2021/01/16 02:05:37;;;;;;;19.73;13.43;;;;;;;;;;5014566;28;20579;-76
2021/01/16 02:08:03;;;;;;;22.92;13.48;;;;;;;;;;5014739;28;20224;-76
2021/01/16 02:10:29;;;;;;;21.88;14.48;;;;;;;;;;5014749;28;20250;-76
2021/01/16 02:12:56;;;;;;;18.15;13.05;;;;;;;;;;5014592;28;20195;-76
2021/01/16 02:15:25;;;;;;;22.77;14.15;;;;;;;;;;5014238;28;20677;-77
2021/01/16 02:17:54;;;;;;;24.13;15.02;;;;;;;;;;5014615;28;20516;-74
2021/01/16 02:20:27;;;;;;;22.60;14.70;;;;;;;;;;5014478;28;20172;-76
2021/01/16 02:23:00;;;;;;;20.77;13.80;;;;;;;;;;5014334;28;20179;-76
2021/01/16 02:25:36;;;;;;;23.48;14.70;;;;;;;;;;5013995;28;20245;-76
2021/01/16 02:28:05;;;;;;;22.67;14.73;;;;;;;;;;5014411;28;20167;-74
2021/01/16 02:30:33;;;;;;;21.42;13.45;;;;;;;;;;5014439;28;20170;-74
2021/01/16 02:32:59;;;;;;;20.27;14.07;;;;;;;;;;5014275;28;20177;-75
2021/01/16 02:35:25;;;;;;;24.80;13.77;;;;;;;;;;5013929;28;20204;-76
2021/01/16 02:38:07;;;;;;;23.45;14.85;;;;;;;;;;5014303;28;20565;-76
2021/01/16 02:40:40;;;;;;;23.75;15.40;;;;;;;;;;5014421;28;20221;-74
2021/01/16 02:43:19;;;;;;;23.00;14.93;;;;;;;;;;5014072;28;20261;-75
2021/01/16 02:45:55;;;;;;;24.35;13.90;;;;;;;;;;5013748;28;20240;-76
2021/01/16 02:48:27;;;;;;;23.85;15.15;;;;;;;;;;5014374;28;20207;-77
2021/01/16 02:50:53;;;;;;;22.27;14.35;;;;;;;;;;5014003;28;20254;-76
2021/01/16 02:53:23;;;;;;;22.20;14.15;;;;;;;;;;5013926;28;20178;-76
2021/01/16 02:55:50;;;;;;;28.25;14.68;;;;;;;;;;5013699;28;20202;-76
2021/01/16 02:58:17;;;;;;;23.75;14.30;;;;;;;;;;5012934;28;20588;-75
2021/01/16 03:00:44;;;;;;;22.85;13.50;;;;;;;;;;5014023;28;20182;-74
2021/01/16 03:03:09;;;;;;;22.58;15.02;;;;;;;;;;5013935;28;20596;-75
2021/01/16 03:05:36;;;;;;;25.10;15.00;;;;;;;;;;5011699;28;20243;-76
2021/01/16 03:08:03;;;;;;;22.52;15.48;;;;;;;;;;5013698;28;20167;-74
2021/01/16 03:10:29;;;;;;;21.30;13.35;;;;;;;;;;5012493;28;20182;-76
2021/01/16 03:12:55;;;;;;;26.65;14.32;;;;;;;;;;5013542;28;20199;-75
2021/01/16 03:15:22;;;;;;;20.48;14.30;;;;;;;;;;5012988;28;20259;-76
2021/01/16 03:17:49;;;;;;;23.90;14.93;;;;;;;;;;5013612;28;20582;-75
2021/01/16 03:20:23;;;;;;;21.90;14.20;;;;;;;;;;5013513;28;20231;-75
2021/01/16 03:22:49;;;;;;;19.77;13.57;;;;;;;;;;5013489;28;20170;-75
2021/01/16 03:25:17;;;;;;;25.55;14.77;;;;;;;;;;5012841;28;20215;-76
2021/01/16 03:27:43;;;;;;;23.10;15.18;;;;;;;;;;5013323;28;20524;-76
2021/01/16 03:30:09;;;;;;;24.38;14.07;;;;;;;;;;5013404;28;20544;-76
2021/01/16 03:32:35;;;;;;;22.65;15.15;;;;;;;;;;5013390;28;20179;-76
2021/01/16 03:35:01;;;;;;;21.05;12.88;;;;;;;;;;5012973;28;20649;-74
2021/01/16 03:37:27;;;;;;;21.70;14.20;;;;;;;;;;5012061;28;20658;-75
2021/01/16 03:39:53;;;;;;;23.20;14.73;;;;;;;;;;5013341;28;20199;-75
2021/01/16 03:42:19;;;;;;;24.35;14.30;;;;;;;;;;5013284;28;20190;-75
2021/01/16 03:44:45;;;;;;;22.95;15.13;;;;;;;;;;5013109;28;20194;-76
2021/01/16 03:47:11;;;;;;;24.00;15.65;;;;;;;;;;5013287;28;20206;-75
2021/01/16 03:49:37;;;;;;;19.67;13.45;;;;;;;;;;5013387;28;20175;-74
2021/01/16 03:52:04;;;;;;;20.33;13.95;;;;;;;;;;5013416;28;20179;-74
2021/01/16 03:54:30;;;;;;;25.10;14.90;;;;;;;;;;5012978;28;20189;-76
2021/01/16 03:56:56;;;;;;;31.70;15.45;;;;;;;;;;5013277;28;20318;-75
2021/01/16 03:59:22;;;;;;;22.95;14.02;;;;;;;;;;5013304;28;20203;-74
2021/01/16 04:01:49;;;;;;;23.70;14.50;;;;;;;;;;5013114;28;20587;-75
2021/01/16 04:04:15;;;;;;;19.27;12.85;;;;;;;;;;5012825;28;20205;-74
2021/01/16 04:06:41;;;;;;;21.98;13.60;;;;;;;;;;5013079;28;20206;-74
2021/01/16 04:09:07;;;;;;;24.75;14.50;;;;;;;;;;5012968;28;20260;-75
2021/01/16 04:11:33;;;;;;;22.55;14.10;;;;;;;;;;5013187;28;20521;-77
2021/01/16 04:14:00;;;;;;;23.02;14.43;;;;;;;;;;5012606;28;20535;-76
2021/01/16 04:16:26;;;;;;;20.60;13.82;;;;;;;;;;5013647;28;20195;-74
2021/01/16 04:18:53;;;;;;;27.27;13.95;;;;;;;;;;5016749;28;20530;-76
2021/01/16 04:21:19;;;;;;;17.05;12.85;;;;;;;;;;5016548;28;20816;-76
2021/01/16 04:23:45;;;;;;;20.50;12.65;;;;;;;;;;5014893;28;20708;-75
2021/01/16 04:26:11;;;;;;;20.30;13.23;;;;;;;;;;5016357;28;20290;-76
2021/01/16 04:28:37;;;;;;;21.27;12.80;;;;;;;;;;5015228;28;20900;-74
2021/01/16 04:31:03;;;;;;;19.45;12.93;;;;;;;;;;5016449;28;20630;-76
2021/01/16 04:33:29;;;;;;;19.50;12.40;;;;;;;;;;5016313;28;20258;-74
2021/01/16 04:35:55;;;;;;;23.27;13.77;;;;;;;;;;5016240;28;20250;-75
2021/01/16 04:38:21;;;;;;;24.58;12.35;;;;;;;;;;5016595;28;20419;-76
2021/01/16 04:40:47;;;;;;;22.17;12.10;;;;;;;;;;5016601;28;20202;-77
2021/01/16 04:43:13;;;;;;;20.15;13.02;;;;;;;;;;5016429;28;20493;-75
2021/01/16 04:45:41;;;;;;;22.13;13.30;;;;;;;;;;5015885;28;20207;-74
2021/01/16 04:48:08;;;;;;;22.02;12.70;;;;;;;;;;5016188;28;20167;-75
2021/01/16 04:50:38;;;;;;;22.42;13.60;;;;;;;;;;5016256;28;20195;-76
2021/01/16 04:53:08;;;;;;;17.42;12.75;;;;;;;;;;5016122;28;20194;-74
2021/01/16 04:55:36;;;;;;;25.50;13.07;;;;;;;;;;5015665;28;20196;-75
2021/01/16 04:58:09;;;;;;;23.55;13.48;;;;;;;;;;5015996;28;20180;-75
2021/01/16 05:00:37;;;;;;;22.77;13.55;;;;;;;;;;5016080;28;20183;-76
2021/01/16 05:03:06;;;;;;;24.23;14.57;;;;;;;;;;5016171;28;20697;-75
2021/01/16 05:05:33;;;;;;;21.52;13.43;;;;;;;;;;5015465;28;20545;-76
2021/01/16 05:08:00;;;;;;;23.23;14.32;;;;;;;;;;5015865;28;20176;-74
2021/01/16 05:10:28;;;;;;;18.88;12.88;;;;;;;;;;5015929;28;20542;-74
2021/01/16 05:13:05;;;;;;;20.83;14.23;;;;;;;;;;5015784;28;20176;-76
2021/01/16 05:15:32;;;;;;;23.85;12.95;;;;;;;;;;5015287;28;20222;-76
2021/01/16 05:18:05;;;;;;;28.35;14.68;;;;;;;;;;5015703;28;20183;-76
2021/01/16 05:20:33;;;;;;;21.15;13.73;;;;;;;;;;5015426;28;20176;-75
2021/01/16 05:23:17;;;;;;;17.35;11.63;;;;;;;;;;5015496;28;20175;-74
2021/01/16 05:25:50;;;;;;;22.90;14.50;;;;;;;;;;5015015;28;20285;-74
2021/01/16 05:28:20;;;;;;;19.63;12.30;;;;;;;;;;5013510;28;20586;-75
2021/01/16 05:30:48;;;;;;;23.10;13.60;;;;;;;;;;5015266;28;20256;-74
2021/01/16 05:33:14;;;;;;;22.08;14.52;;;;;;;;;;5015224;28;20179;-75
2021/01/16 05:35:40;;;;;;;19.00;13.57;;;;;;;;;;5014952;28;20211;-75
2021/01/16 05:38:07;;;;;;;21.20;12.88;;;;;;;;;;5015255;28;20185;-77
2021/01/16 05:40:35;;;;;;;22.52;13.73;;;;;;;;;;5015170;28;20585;-74
2021/01/16 05:43:01;;;;;;;23.25;13.77;;;;;;;;;;5015044;28;20188;-74
2021/01/16 05:45:27;;;;;;;22.15;14.30;;;;;;;;;;5014680;28;20231;-75
2021/01/16 05:47:54;;;;;;;21.80;14.20;;;;;;;;;;5015187;28;20573;-75
2021/01/16 05:50:24;;;;;;;18.55;13.10;;;;;;;;;;5015050;28;20257;-74
2021/01/16 05:52:50;;;;;;;20.13;14.10;;;;;;;;;;5015204;28;20186;-76
2021/01/16 05:55:19;;;;;;;20.55;13.20;;;;;;;;;;5014490;28;20252;-77
2021/01/16 05:57:47;;;;;;;21.33;14.52;;;;;;;;;;5014978;28;20173;-73
2021/01/16 06:00:22;;;;;;;23.40;14.65;;;;;;;;;;5014972;28;20224;-74
2021/01/16 06:02:48;;;;;;;23.15;14.52;;;;;;;;;;5014820;28;20175;-75
2021/01/16 06:05:14;;;;;;;21.17;13.63;;;;;;;;;;5013067;28;20211;-77
2021/01/16 06:07:42;;;;;;;22.90;14.25;;;;;;;;;;5014634;28;20173;-74
2021/01/16 06:10:13;;;;;;;19.90;13.60;;;;;;;;;;5014612;28;20544;-76
2021/01/16 06:12:39;;;;;;;24.83;15.63;;;;;;;;;;5013300;28;20302;-75
2021/01/16 06:15:13;;;;;;;22.48;13.27;;;;;;;;;;5014109;28;20227;-76
2021/01/16 06:17:41;;;;;;;23.80;14.88;;;;;;;;;;5014808;28;20175;-76
2021/01/16 06:20:07;;;;;;;23.00;14.60;;;;;;;;;;5014370;28;20262;-76
2021/01/16 06:22:33;;;;;;;24.40;14.70;;;;;;;;;;5014310;28;20177;-74
2021/01/16 06:25:02;;;;;;;25.38;14.77;;;;;;;;;;5013765;28;20187;-75
2021/01/16 06:27:28;;;;;;;20.58;13.30;;;;;;;;;;5014311;28;20588;-76
2021/01/16 06:29:58;;;;;;;22.45;13.88;;;;;;;;;;5014289;28;20179;-75
2021/01/16 06:32:25;;;;;;;21.17;14.27;;;;;;;;;;5014267;28;20175;-73
2021/01/16 06:35:05;;;;;;;22.50;13.25;;;;;;;;;;5013656;28;20187;-76
2021/01/16 06:37:31;;;;;;;20.35;13.40;;;;;;;;;;5014287;28;20205;-76
2021/01/16 06:39:57;;;;;;;19.50;13.73;;;;;;;;;;5013422;28;20226;-73
2021/01/16 06:42:26;;;;;;;22.35;14.65;;;;;;;;;;5014407;28;20238;-75
2021/01/16 06:45:11;;;;;;;20.73;13.48;;;;;;;;;;5013543;28;20250;-76
2021/01/16 06:47:38;;;;;;;22.85;14.52;;;;;;;;;;5014047;28;20187;-76
2021/01/16 06:50:07;;;;;;;23.15;13.70;;;;;;;;;;5014064;28;20173;-74
2021/01/16 06:52:40;;;;;;;19.73;13.55;;;;;;;;;;5013985;28;20175;-75
2021/01/16 06:55:07;;;;;;;25.20;14.43;;;;;;;;;;5013309;28;20208;-74
2021/01/16 06:57:33;;;;;;;21.05;14.05;;;;;;;;;;5013765;28;20236;-73
2021/01/16 07:00:00;;;;;;;23.65;14.65;;;;;;;;;;5012555;28;20175;-77
2021/01/16 07:02:26;;;;;;;21.00;13.35;;;;;;;;;;5013759;28;20172;-75
2021/01/16 07:04:56;;;;;;;21.77;15.00;;;;;;;;;;5013562;28;20686;-74
2021/01/16 07:07:51;;;;;;;21.40;14.35;;;;;;;;;;5013783;28;20458;-75
2021/01/16 07:10:17;;;;;;;21.40;14.75;;;;;;;;;;5012988;28;20191;-76
2021/01/16 07:12:48;;;;;;;23.25;14.43;;;;;;;;;;5013724;28;20172;-76
2021/01/16 07:15:15;;;;;;;21.90;14.52;;;;;;;;;;5013025;28;20545;-75
2021/01/16 07:17:41;;;;;;;20.35;13.10;;;;;;;;;;5013481;28;20174;-74
2021/01/16 07:20:08;;;;;;;28.45;14.52;;;;;;;;;;5013458;28;20179;-75
2021/01/16 07:22:38;;;;;;;21.73;14.13;;;;;;;;;;5013539;28;20742;-76
2021/01/16 07:25:05;;;;;;;20.52;13.85;;;;;;;;;;5012675;28;20217;-74
2021/01/16 07:27:32;;;;;;;20.73;13.77;;;;;;;;;;5013314;28;20313;-75
2021/01/16 07:29:59;;;;;;;23.10;14.50;;;;;;;;;;5013268;28;20222;-76
2021/01/16 07:32:37;;;;;;;23.17;13.63;;;;;;;;;;5013389;28;20568;-74
2021/01/16 07:35:04;;;;;;;20.92;13.63;;;;;;;;;;5012961;28;20190;-76
2021/01/16 07:37:31;;;;;;;25.08;14.85;;;;;;;;;;5013193;28;20206;-75
2021/01/16 07:39:58;;;;;;;24.38;13.63;;;;;;;;;;5013359;28;20187;-75
2021/01/16 07:42:25;;;;;;;25.35;14.02;;;;;;;;;;5013339;28;20600;-77
2021/01/16 07:45:00;;;;;;;22.90;14.93;;;;;;;;;;5012978;28;20725;-75
2021/01/16 07:47:38;;;;;;;24.42;15.48;;;;;;;;;;5013343;28;20274;-75
2021/01/16 07:50:10;;;;;;;26.80;14.40;;;;;;;;;;5013401;28;20182;-77
2021/01/16 07:52:37;;;;;;;20.42;13.60;;;;;;;;;;5017077;28;20572;-74
2021/01/16 07:55:09;;;;;;;28.90;16.55;;;;;;;;;;5017061;28;20200;-74
2021/01/16 07:57:35;;;;;;;23.55;14.60;;;;;;;;;;5017037;28;20677;-75
2021/01/16 08:00:04;;;;;;;25.63;14.80;;;;;;;;;;5017437;28;20234;-75
2021/01/16 08:02:31;;;;;;;22.40;14.35;;;;;;;;;;5017200;28;20259;-76
2021/01/16 08:05:04;;;;;;;24.35;15.40;;;;;;;;;;5015377;28;20200;-75
2021/01/16 08:07:45;;;;;;;22.60;15.50;;;;;;;;;;5016868;28;20189;-74
2021/01/16 08:10:14;;;;;;;24.65;14.52;;;;;;;;;;5015659;28;20175;-74
2021/01/16 08:12:41;;;;;;;21.35;13.70;;;;;;;;;;5015687;28;20171;-76
2021/01/16 08:15:11;;;;;;;21.70;13.48;;;;;;;;;;5016176;28;20199;-76
2021/01/16 08:17:39;;;;;;;28.48;13.80;;;;;;;;;;5016861;28;20183;-78
2021/01/16 08:20:06;;;;;;;25.63;15.50;;;;;;;;;;5016749;28;20644;-75
2021/01/16 08:22:39;;;;;;;34.13;14.82;;;;;;;;;;5016919;28;20171;-76
2021/01/16 08:25:07;;;;;;;23.45;13.73;;;;;;;;;;5016242;28;20277;-76
2021/01/16 08:27:34;;;;;;;24.75;14.43;;;;;;;;;;5016666;28;20181;-75
2021/01/16 08:30:14;;;;;;;25.60;14.05;;;;;;;;;;5016487;28;20511;-77
2021/01/16 08:32:53;;;;;;;24.52;13.77;;;;;;;;;;5016463;28;20589;-75
2021/01/16 08:35:26;;;;;;;24.70;13.85;;;;;;;;;;5015984;28;20194;-75
2021/01/16 08:37:53;;;;;;;23.20;14.60;;;;;;;;;;5016227;28;20171;-76
2021/01/16 08:40:36;;;;;;;22.02;14.30;;;;;;;;;;5016303;28;20172;-76
2021/01/16 08:43:02;;;;;;;26.85;14.00;;;;;;;;;;5016174;28;20168;-76
2021/01/16 08:45:28;;;;;;;21.88;13.38;;;;;;;;;;5015776;28;20208;-74
2021/01/16 08:47:55;;;;;;;21.75;14.63;;;;;;;;;;5015121;28;20183;-75
2021/01/16 08:50:22;;;;;;;19.30;12.48;;;;;;;;;;5016333;28;20176;-74
2021/01/16 08:52:48;;;;;;;23.23;14.25;;;;;;;;;;5016364;28;20178;-76
2021/01/16 08:55:14;;;;;;;18.48;12.50;;;;;;;;;;5015787;28;20645;-74
2021/01/16 08:57:40;;;;;;;21.95;14.20;;;;;;;;;;5016083;28;20206;-76
2021/01/16 09:00:18;;;;;;;24.05;14.40;;;;;;;;;;5015923;28;20671;-76
2021/01/16 09:03:04;;;;;;;24.13;13.98;;;;;;;;;;5015016;28;20179;-75
2021/01/16 09:05:32;;;;;;;19.05;12.75;;;;;;;;;;5014248;28;20298;-75
2021/01/16 09:07:58;;;;;;;23.63;14.50;;;;;;;;;;5015823;28;20204;-77
2021/01/16 09:10:24;;;;;;;21.40;14.05;;;;;;;;;;5015925;28;20265;-75
2021/01/16 09:12:50;;;;;;;22.27;13.32;;;;;;;;;;5016084;28;20175;-75
2021/01/16 09:15:20;;;;;;;26.77;15.45;;;;;;;;;;5015321;28;20228;-77
2021/01/16 09:18:02;;;;;;;21.33;13.50;;;;;;;;;;5015843;28;20175;-75
2021/01/16 09:20:28;;;;;;;22.23;13.80;;;;;;;;;;5015671;28;20246;-76
2021/01/16 09:22:54;;;;;;;25.48;14.50;;;;;;;;;;5015613;28;20177;-75
2021/01/16 09:25:21;;;;;;;21.02;13.32;;;;;;;;;;5015146;28;20192;-75
2021/01/16 09:27:48;;;;;;;22.90;13.75;;;;;;;;;;5015544;28;20167;-77
2021/01/16 09:30:24;;;;;;;24.88;14.02;;;;;;;;;;5015346;28;20169;-75
2021/01/16 09:32:50;;;;;;;23.17;14.68;;;;;;;;;;5015344;28;20177;-76
2021/01/16 09:35:36;;;;;;;23.95;14.25;;;;;;;;;;5015107;28;20184;-74
2021/01/16 09:38:02;;;;;;;21.60;13.93;;;;;;;;;;5015259;28;20218;-75
2021/01/16 09:40:35;;;;;;;22.55;14.25;;;;;;;;;;5015015;28;20253;-75
2021/01/16 09:43:12;;;;;;;22.25;14.25;;;;;;;;;;5015178;28;20196;-76
2021/01/16 09:45:59;;;;;;;25.38;14.60;;;;;;;;;;5014638;28;20291;-74
2021/01/16 09:48:36;;;;;;;22.88;13.90;;;;;;;;;;5014699;28;20216;-74
2021/01/16 09:51:03;;;;;;;22.00;13.82;;;;;;;;;;5012247;28;20172;-75
2021/01/16 09:53:30;;;;;;;22.95;13.55;;;;;;;;;;5011799;28;20179;-76
2021/01/16 09:55:56;;;;;;;24.80;14.60;;;;;;;;;;5014805;28;20228;-76
2021/01/16 09:58:35;;;;;;;19.35;13.02;;;;;;;;;;5014859;28;20175;-74
2021/01/16 10:01:17;;;;;;;20.10;13.10;;;;;;;;;;5014899;28;20170;-76
2021/01/16 10:03:44;;;;;;;16.27;10.70;;;;;;;;;;5014492;28;20271;-76
2021/01/16 10:06:13;;;;;;;18.08;11.98;;;;;;;;;;5014601;28;20573;-74
2021/01/16 10:08:40;;;;;;;25.30;13.63;;;;;;;;;;5014638;28;20169;-77
2021/01/16 10:11:06;;;;;;;20.00;11.32;;;;;;;;;;5014785;28;20593;-76
2021/01/16 10:13:33;;;;;;;19.77;13.60;;;;;;;;;;5014258;28;20636;-73
2021/01/16 10:16:00;;;;;;;17.70;11.35;;;;;;;;;;5014398;28;20237;-76
2021/01/16 10:18:27;;;;;;;18.10;11.13;;;;;;;;;;5014401;28;20177;-74
2021/01/16 10:21:08;;;;;;;19.90;13.00;;;;;;;;;;5014340;28;20180;-74
2021/01/16 10:23:35;;;;;;;17.48;11.40;;;;;;;;;;5014035;28;20181;-76
2021/01/16 10:26:02;;;;;;;20.50;12.38;;;;;;;;;;5014344;28;20610;-75
2021/01/16 10:28:34;;;;;;;25.20;12.70;;;;;;;;;;5014485;28;20558;-75
2021/01/16 10:31:04;;;;;;;20.27;11.88;;;;;;;;;;5014236;28;20173;-77
2021/01/16 10:33:36;;;;;;;16.25;10.80;;;;;;;;;;5013900;28;20649;-76
2021/01/16 10:36:07;;;;;;;15.43;10.63;;;;;;;;;;5012805;28;20204;-75
2021/01/16 10:38:53;;;;;;;21.10;12.73;;;;;;;;;;5014029;28;20703;-76
2021/01/16 10:41:34;;;;;;;18.15;12.10;;;;;;;;;;5013944;28;20192;-76
2021/01/16 10:44:01;;;;;;;20.63;12.52;;;;;;;;;;5013642;28;20566;-76
2021/01/16 10:46:30;;;;;;;19.63;12.25;;;;;;;;;;5014074;28;20543;-77
2021/01/16 10:49:25;;;;;;;19.63;10.63;;;;;;;;;;5013809;28;20173;-76
2021/01/16 10:52:04;;;;;;;19.23;11.68;;;;;;;;;;5009635;28;20186;-76
2021/01/16 10:54:31;;;;;;;15.68;11.70;;;;;;;;;;5013695;28;20201;-74
2021/01/16 10:57:07;;;;;;;17.80;11.27;;;;;;;;;;5013923;28;20193;-77
2021/01/16 10:59:35;;;;;;;16.75;10.98;;;;;;;;;;5014073;28;20186;-75
2021/01/16 11:02:12;;;;;;;20.33;11.40;;;;;;;;;;5013844;28;20281;-75
2021/01/16 11:04:48;;;;;;;19.75;12.07;;;;;;;;;;5012243;28;20291;-77
2021/01/16 11:07:27;;;;;;;22.23;12.45;;;;;;;;;;5013686;28;20208;-77
2021/01/16 11:10:04;;;;;;;17.95;12.07;;;;;;;;;;5012526;28;20212;-75
2021/01/16 11:12:30;;;;;;;16.27;10.48;;;;;;;;;;5013870;28;20179;-75
2021/01/16 11:14:56;;;;;;;20.20;12.07;;;;;;;;;;5013286;28;20236;-76
2021/01/16 11:17:42;;;;;;;19.08;12.02;;;;;;;;;;5013890;28;20600;-76
2021/01/16 11:20:10;;;;;;;17.33;10.98;;;;;;;;;;5012511;28;20181;-75
2021/01/16 11:22:43;;;;;;;17.70;11.77;;;;;;;;;;5013773;28;20908;-75
2021/01/16 11:25:13;;;;;;;17.25;10.65;;;;;;;;;;5011254;28;20199;-76
2021/01/16 11:27:55;;;;;;;16.67;10.98;;;;;;;;;;5012410;28;20178;-75
2021/01/16 11:30:22;;;;;;;18.33;10.85;;;;;;;;;;5013762;28;20169;-77
2021/01/16 11:32:54;;;;;;;16.13;10.50;;;;;;;;;;5011792;28;20242;-76
2021/01/16 11:35:21;;;;;;;17.40;10.48;;;;;;;;;;5012452;28;20197;-75
2021/01/16 11:37:51;;;;;;;14.35;10.55;;;;;;;;;;5012822;28;20213;-76
2021/01/16 11:40:30;;;;;;;17.23;11.20;;;;;;;;;;5012964;28;20249;-76
2021/01/16 11:42:57;;;;;;;16.38;10.05;;;;;;;;;;5012882;28;20532;-76
2021/01/16 11:45:24;;;;;;;16.33;10.05;;;;;;;;;;5027679;28;20680;-74
2021/01/16 11:47:52;;;;;;;13.68;10.02;;;;;;;;;;5013633;28;20171;-75
2021/01/16 11:50:19;;;;;;;15.73;10.45;;;;;;;;;;5013639;28;20513;-76
2021/01/16 11:52:45;;;;;;;12.20;8.00;;;;;;;;;;5013404;28;20173;-77
2021/01/16 11:55:12;;;;;;;16.27;8.50;;;;;;;;;;5011452;28;20206;-77
2021/01/16 11:57:37;;;;;;;15.43;8.90;;;;;;;;;;5013493;28;20174;-76
2021/01/16 12:00:05;;;;;;;13.80;9.05;;;;;;;;;;5012936;28;20634;-76
2021/01/16 12:02:32;;;;;;;10.82;8.32;;;;;;;;;;5013518;28;20178;-75
2021/01/16 12:05:00;;;;;;;13.52;8.70;;;;;;;;;;5013125;28;20240;-76
2021/01/16 12:07:30;;;;;;;11.68;8.35;;;;;;;;;;5012046;28;20621;-75
2021/01/16 12:09:57;;;;;;;12.70;8.45;;;;;;;;;;5013223;28;20206;-76
2021/01/16 12:12:30;;;;;;;12.98;9.20;;;;;;;;;;5013416;28;20176;-76
2021/01/16 12:14:56;;;;;;;10.55;7.57;;;;;;;;;;5012724;28;20188;-75
2021/01/16 12:17:23;;;;;;;8.95;6.60;;;;;;;;;;5013245;28;20186;-75
2021/01/16 12:19:54;;;;;;;11.65;7.88;;;;;;;;;;5013039;28;20241;-75
2021/01/16 12:22:21;;;;;;;10.80;7.70;;;;;;;;;;5012952;28;20183;-76
2021/01/16 12:24:47;;;;;;;10.73;7.45;;;;;;;;;;5012634;28;20248;-76
2021/01/16 12:27:13;;;;;;;10.70;8.55;;;;;;;;;;5013112;28;20530;-76
2021/01/16 12:29:44;;;;;;;11.85;7.80;;;;;;;;;;5012690;28;20181;-75
2021/01/16 12:32:12;;;;;;;9.95;7.88;;;;;;;;;;5011780;28;20178;-76
2021/01/16 12:34:44;;;;;;;10.07;8.00;;;;;;;;;;5012792;28;20198;-74
2021/01/16 12:37:11;;;;;;;8.40;6.65;;;;;;;;;;5013090;28;20175;-76
2021/01/16 12:39:37;;;;;;;8.30;6.65;;;;;;;;;;5015117;28;20183;-76
2021/01/16 12:42:03;;;;;;;10.85;7.35;;;;;;;;;;5016375;28;20182;-76
2021/01/16 12:44:29;;;;;;;7.80;6.13;;;;;;;;;;5015896;28;20195;-75
2021/01/16 12:46:55;;;;;;;8.60;6.90;;;;;;;;;;5016223;28;20260;-74
2021/01/16 12:49:22;;;;;;;5.95;5.35;;;;;;;;;;5014599;28;20921;-77
2021/01/16 12:51:48;;;;;;;7.53;5.35;;;;;;;;;;5011023;28;20183;-77
2021/01/16 12:54:17;;;;;;;5.85;4.00;;;;;;;;;;4995694;28;20190;-76
2021/01/16 12:56:44;;;;;;;5.25;4.05;;;;;;;;;;4996658;28;20635;-76
2021/01/16 12:59:16;;;;;;;4.97;3.90;;;;;;;;;;4996700;28;20187;-75
2021/01/16 13:01:45;;;;;;;5.03;4.05;;;;;;;;;;4995391;28;20214;-76
2021/01/16 13:04:11;;;;;;;4.32;3.42;;;;;;;;;;4996389;28;20185;-76
2021/01/16 13:06:38;;;;;;;4.93;3.67;;;;;;;;;;4996544;28;20603;-77
2021/01/16 13:09:05;;;;;;;6.80;4.70;;;;;;;;;;4996625;28;20270;-77
2021/01/16 13:11:32;;;;;;;8.77;4.57;;;;;;;;;;4996109;28;20197;-77
2021/01/16 13:13:59;;;;;;;5.80;4.70;;;;;;;;;;4994739;28;20185;-75
2021/01/16 13:16:43;;;;;;;7.07;4.72;;;;;;;;;;4996232;28;20638;-76
2021/01/16 13:19:09;;;;;;;4.78;4.15;;;;;;;;;;4996340;28;20178;-77
2021/01/16 13:21:36;;;;;;;8.68;5.10;;;;;;;;;;4996258;28;20520;-76
2021/01/16 13:24:03;;;;;;;6.97;5.05;;;;;;;;;;4995733;28;20253;-74
2021/01/16 13:26:38;;;;;;;11.27;4.78;;;;;;;;;;4996129;28;20685;-76
2021/01/16 13:29:06;;;;;;;7.50;4.80;;;;;;;;;;4996201;28;20185;-73
2021/01/16 13:31:32;;;;;;;10.02;6.45;;;;;;;;;;4996189;28;20186;-76
2021/01/16 13:33:58;;;;;;;9.70;5.90;;;;;;;;;;4995447;28;20190;-76
2021/01/16 13:36:24;;;;;;;9.32;5.75;;;;;;;;;;4995753;28;20178;-76
2021/01/16 13:38:53;;;;;;;9.00;6.07;;;;;;;;;;4995886;28;20182;-76
2021/01/16 13:41:19;;;;;;;8.45;5.65;;;;;;;;;;4995680;28;20410;-76
2021/01/16 13:43:46;;;;;;;9.77;6.55;;;;;;;;;;4995288;28;20260;-74
2021/01/16 13:46:13;;;;;;;7.85;5.43;;;;;;;;;;4995305;28;20216;-76
2021/01/16 13:48:40;;;;;;;11.48;7.22;;;;;;;;;;4993903;28;20183;-75
2021/01/16 13:51:22;;;;;;;10.98;7.38;;;;;;;;;;4995784;28;20237;-76
2021/01/16 13:53:51;;;;;;;10.45;7.13;;;;;;;;;;4995423;28;20695;-76
2021/01/16 13:56:19;;;;;;;10.02;6.45;;;;;;;;;;4995502;28;20258;-74
2021/01/16 13:58:45;;;;;;;12.23;8.85;;;;;;;;;;4994200;28;20183;-77
2021/01/16 14:01:11;;;;;;;13.77;9.05;;;;;;;;;;4995373;28;20262;-76
2021/01/16 14:03:39;;;;;;;10.40;7.25;;;;;;;;;;4995047;28;20179;-76
2021/01/16 14:06:05;;;;;;;11.27;7.55;;;;;;;;;;4995025;28;20221;-76
2021/01/16 14:08:31;;;;;;;14.82;9.18;;;;;;;;;;4995058;28;20178;-75
2021/01/16 14:11:01;;;;;;;13.25;8.73;;;;;;;;;;4995507;28;20204;-75
2021/01/16 14:13:36;;;;;;;13.57;9.02;;;;;;;;;;4995058;28;20237;-75
2021/01/16 14:16:05;;;;;;;11.32;8.43;;;;;;;;;;4995145;28;20217;-75
2021/01/16 14:18:35;;;;;;;11.75;8.55;;;;;;;;;;4995019;28;20185;-76
2021/01/16 14:21:12;;;;;;;13.43;8.73;;;;;;;;;;4995031;28;20513;-76
2021/01/16 14:23:38;;;;;;;13.35;8.60;;;;;;;;;;4994783;28;20173;-75
2021/01/16 14:26:15;;;;;;;12.50;8.00;;;;;;;;;;4994930;28;20293;-75
2021/01/16 14:28:42;;;;;;;9.85;6.25;;;;;;;;;;4994737;28;20188;-75
2021/01/16 14:31:09;;;;;;;11.20;7.93;;;;;;;;;;4994759;28;20202;-76